Flight Track Log - Related Links

Times and Time Zones

All times are in EDT time to prevent confusion due to time zone crossing. See the EJA122 flight status page for this flight to view local times or setup timezone preferences in your user account.

Time Position Orientation Groundspeed Altitude Reporting Facility
EDT Latitude Longitude Course Direction KTS MPH feet Rate Location/Type
Sat 02:10:46 PM 37.6500 -122.3333 28° Northeast 193 222 2,400  Level Northern Cal TRACON
Sat 02:11:46 PM 37.7000 -122.2833 38° Northeast 211 243 4,400 1,604 Climbing Northern Cal TRACON
Sat 02:14:08 PM 37.8133 -122.1489 43° Northeast 269 310 7,800 1,471 Climbing Oakland Center
Sat 02:15:10 PM 37.8789 -122.0867 37° Northeast 290 334 9,400 1,659 Climbing Oakland Center
Sat 02:16:00 PM 37.8161 -122.1671 28° Northeast  Level FlightAware Approximate
Sat 02:16:11 PM 37.9608 -122.0103 36° Northeast 304 350 11,200  Level Oakland Center
Sat 02:17:13 PM 38.0311 -121.9442 37° Northeast 312 359 12,800 1,500 Climbing Oakland Center
Sat 02:18:15 PM 38.1017 -121.8769 37° Northeast 317 365 14,300 1,463 Climbing Oakland Center
Sat 02:19:16 PM 38.1731 -121.8097 37° Northeast 319 367 15,800 1,512 Climbing Oakland Center
Sat 02:20:18 PM 38.2444 -121.7414 37° Northeast 321 369 17,400 1,403 Climbing Oakland Center
Sat 02:21:20 PM 38.2975 -121.6475 54° Northeast 327 376 18,700 1,220 Climbing Oakland Center
Sat 02:22:21 PM 38.3564 -121.5469 53° Northeast 342 394 19,900 1,268 Climbing Oakland Center
Sat 02:23:23 PM 38.4269 -121.4253 53° Northeast 355 409 21,300 1,171 Climbing Oakland Center
Sat 02:24:24 PM 38.4881 -121.3197 53° Northeast 366 421 22,300 976 Climbing Oakland Center
Sat 02:25:26 PM 38.5475 -121.2139 54° Northeast 367 422 23,300 976 Climbing Oakland Center
Sat 02:26:27 PM 38.6033 -121.1147 54° Northeast 371 427 24,300 1,073 Climbing Oakland Center
Sat 02:27:29 PM 38.6806 -120.9900 52° Northeast 377 434 25,500 1,065 Climbing Oakland Center
Sat 02:28:31 PM 38.7628 -120.9053 39° Northeast 383 441 26,500 1,024 Climbing Oakland Center
Sat 02:29:32 PM 38.8489 -120.8208 37° Northeast 389 448 27,600 1,024 Climbing Oakland Center
Sat 02:30:34 PM 38.9233 -120.7189 47° Northeast 394 453 28,600 976 Climbing Oakland Center
Sat 02:31:35 PM 38.9861 -120.6028 55° Northeast 395 455 29,600 1,024 Climbing Oakland Center
Sat 02:32:37 PM 39.0508 -120.4847 55° Northeast 401 461 30,700 1,024 Climbing Oakland Center
Sat 02:33:38 PM 39.1150 -120.3678 55° Northeast 402 463 31,700 1,024 Climbing Oakland Center
Sat 02:34:40 PM 39.1811 -120.2497 54° Northeast 404 465 32,800 919 Climbing Oakland Center
Sat 02:35:42 PM 39.2561 -120.1125 55° Northeast 411 473 33,600 585 Climbing Oakland Center
Sat 02:36:43 PM 39.3242 -119.9883 55° Northeast 422 486 34,000 195 Climbing Oakland Center
Sat 02:37:45 PM 39.3928 -119.8586 56° Northeast 436 502 34,000  Level Oakland Center
Sat 02:38:46 PM 39.4672 -119.7231 55° Northeast 457 526 34,000  Level Oakland Center
Sat 02:39:48 PM 39.5392 -119.5828 56° Northeast 465 535 34,000  Level Oakland Center
Sat 02:40:49 PM 39.6153 -119.4419 55° Northeast 474 545 34,000  Level Oakland Center
Sat 02:41:51 PM 39.6900 -119.2969 56° Northeast 478 550 34,000  Level Oakland Center
Sat 02:42:52 PM 39.7811 -119.1253 55° Northeast 479 551 34,000 293 Level Oakland Center
Sat 02:43:54 PM 39.8564 -118.9797 56° Northeast 481 554 34,600 488 Climbing Oakland Center
Sat 02:44:55 PM 39.9286 -118.8394 56° Northeast 468 539 35,000 195 Climbing Oakland Center
Sat 02:45:57 PM 40.0022 -118.6989 56° Northeast 465 535 35,000  Level Oakland Center
Sat 02:46:58 PM 40.0767 -118.5533 56° Northeast 477 549 35,000  Level Oakland Center
Sat 02:48:00 PM 40.1500 -118.4092 56° Northeast 476 548 35,000  Level Oakland Center
Sat 02:49:01 PM 40.2244 -118.2631 56° Northeast 481 554 35,000  Level Oakland Center
Sat 02:50:03 PM 40.3042 -118.1069 56° Northeast 485 558 35,000  Level Salt Lake Center
Sat 02:51:05 PM 40.3764 -117.9664 56° Northeast 485 558 35,000  Level Salt Lake Center
Sat 02:52:07 PM 40.4597 -117.8011 56° Northeast 486 559 35,000  Level Salt Lake Center
Sat 02:53:09 PM 40.5306 -117.6581 57° Northeast 486 559 35,000  Level Salt Lake Center
Sat 02:54:11 PM 40.6144 -117.4925 56° Northeast 486 559 35,000  Level Salt Lake Center
Sat 02:55:13 PM 40.6847 -117.3481 57° Northeast 487 560 35,000  Level Salt Lake Center
Sat 02:56:15 PM 40.7567 -117.2036 57° Northeast 488 562 35,000  Level Salt Lake Center
Sat 02:58:19 PM 40.9108 -116.8883 57° Northeast 490 564 35,000  Level Salt Lake Center
Sat 02:59:21 PM 40.9942 -116.7189 57° Northeast 489 563 35,000  Level Salt Lake Center
Sat 03:00:23 PM 41.0647 -116.5739 57° Northeast 488 562 35,000  Level Salt Lake Center
Sat 03:01:25 PM 41.1469 -116.4039 57° Northeast 489 563 35,000  Level Salt Lake Center
Sat 03:02:27 PM 41.2169 -116.2578 57° Northeast 489 563 35,000  Level Salt Lake Center
Sat 03:03:29 PM 41.2844 -116.1072 59° Northeast 492 566 35,000  Level Salt Lake Center
Sat 03:04:31 PM 41.3658 -115.9364 58° Northeast 490 564 35,000  Level Salt Lake Center
Sat 03:05:33 PM 41.4350 -115.7889 58° Northeast 491 565 35,000  Level Salt Lake Center
Sat 03:06:35 PM 41.5158 -115.6167 58° Northeast 491 565 35,000  Level Salt Lake Center
Sat 03:07:37 PM 41.5850 -115.4689 58° Northeast 490 564 35,000  Level Salt Lake Center
Sat 03:08:38 PM 41.6661 -115.2964 58° Northeast 491 565 35,000  Level Salt Lake Center
Sat 03:09:40 PM 41.7333 -115.1469 59° Northeast 489 563 35,000  Level Salt Lake Center
Sat 03:10:42 PM 41.8136 -114.9744 58° Northeast 489 563 35,000  Level Salt Lake Center
Sat 03:11:44 PM 41.8833 -114.8250 58° Northeast 495 570 35,000  Level Salt Lake Center
Sat 03:12:46 PM 41.9622 -114.6494 59° Northeast 491 565 35,000  Level Salt Lake Center
Sat 03:13:48 PM 42.0242 -114.5108 59° Northeast 492 566 35,000  Level Salt Lake Center
Sat 03:14:50 PM 42.0950 -114.3539 59° Northeast 492 566 35,000  Level Salt Lake Center
Sat 03:15:52 PM 42.1803 -114.1633 59° Northeast 494 568 35,000  Level Salt Lake Center
Sat 03:16:54 PM 42.2492 -114.0072 59° Northeast 487 560 35,000  Level Salt Lake Center
Sat 03:17:56 PM 42.3178 -113.8506 59° Northeast 485 558 35,000  Level Salt Lake Center
Sat 03:18:57 PM 42.3858 -113.6939 60° Northeast 484 557 35,000  Level Salt Lake Center
Sat 03:19:59 PM 42.4553 -113.5381 59° Northeast 483 556 35,000  Level Salt Lake Center
Sat 03:21:01 PM 42.5242 -113.3822 59° Northeast 482 555 35,000  Level Salt Lake Center
Sat 03:22:03 PM 42.6150 -113.2042 55° Northeast 477 549 35,000  Level Salt Lake Center
Sat 03:23:05 PM 42.6886 -113.0592 55° Northeast 480 552 35,000  Level Salt Lake Center
Sat 03:24:07 PM 42.7600 -112.9156 56° Northeast 480 552 35,000  Level Salt Lake Center
Sat 03:25:09 PM 42.8439 -112.7458 56° Northeast 482 555 35,000 -145 Level Salt Lake Center
Sat 03:26:11 PM 42.9164 -112.6025 55° Northeast 482 555 34,700 -968 Descending Salt Lake Center
Sat 03:27:13 PM 43.0011 -112.4297 56° Northeast 490 564 33,000 -1,597 Descending Salt Lake Center
Sat 03:28:15 PM 43.0725 -112.2822 56° Northeast 488 562 31,400 -1,742 Descending Salt Lake Center
Sat 03:29:17 PM 43.1528 -112.1192 56° Northeast 465 535 29,400 -1,805 Descending Salt Lake Center
Sat 03:30:18 PM 43.2208 -111.9803 56° Northeast 460 529 27,700 -1,756 Descending Salt Lake Center
Sat 03:31:20 PM 43.2997 -111.8144 57° Northeast 465 535 25,800 -1,742 Descending Salt Lake Center
Sat 03:32:22 PM 43.3683 -111.6736 56° Northeast 466 536 24,100 -1,790 Descending Salt Lake Center
Sat 03:33:24 PM 43.4461 -111.5125 56° Northeast 459 528 22,100 -1,790 Descending Salt Lake Center
Sat 03:34:26 PM 43.5117 -111.3733 57° Northeast 456 525 20,400 -1,645 Descending Salt Lake Center
Sat 03:35:28 PM 43.5775 -111.2356 57° Northeast 454 522 18,700 -1,645 Descending Salt Lake Center
Sat 03:36:30 PM 43.6519 -111.0781 57° Northeast 447 514 17,000 -1,306 Descending Salt Lake Center
Sat 03:37:32 PM 43.7053 -110.9639 57° Northeast 406 467 16,000 -488 Descending Salt Lake Center
Sat 03:38:33 PM 43.7481 -110.8719 57° Northeast 293 337 16,000 -49 Level Salt Lake Center
Sat 03:39:35 PM 43.7869 -110.7878 57° Northeast 260 299 15,900 -484 Descending Salt Lake Center
Sat 03:40:37 PM 43.8003 -110.7000 78° East 245 282 15,000 -1,694 Descending Salt Lake Center
Sat 03:41:39 PM 43.7619 -110.6358 130° Southeast 228 262 12,400 -2,661 Descending Salt Lake Center
Sat 03:42:41 PM 43.7092 -110.6706 205° Southwest 199 229 9,500 -2,226 Descending Salt Lake Center
Sat 03:43:43 PM 43.6714 -110.7058 214° Southwest 177 204 7,800 -1,306 Descending Salt Lake Center
Sat 03:44:45 PM 43.6308 -110.7272 201° Southwest 165 190 6,800 -968 Descending Salt Lake Center

Login

Don't have an account? Register now (free) for customized features, flight alerts, and more!